sensor_id;sensor_type;location;lat;lon;timestamp;temperature;humidity
42187;DHT22;27858;51.414;0.018;2022-07-23T00:00:27;18.20;1.00
42187;DHT22;27858;51.414;0.018;2022-07-23T00:02:55;18.20;1.00
42187;DHT22;27858;51.414;0.018;2022-07-23T00:05:22;18.20;1.00
42187;DHT22;27858;51.414;0.018;2022-07-23T00:07:49;18.30;1.00
42187;DHT22;27858;51.414;0.018;2022-07-23T00:10:16;18.30;1.00
42187;DHT22;27858;51.414;0.018;2022-07-23T00:12:43;18.30;1.00
42187;DHT22;27858;51.414;0.018;2022-07-23T00:15:18;18.30;1.00
42187;DHT22;27858;51.414;0.018;2022-07-23T00:17:45;18.30;1.00
42187;DHT22;27858;51.414;0.018;2022-07-23T00:20:13;18.30;1.00
42187;DHT22;27858;51.414;0.018;2022-07-23T00:22:53;18.30;1.00
42187;DHT22;27858;51.414;0.018;2022-07-23T00:25:22;18.30;1.00
42187;DHT22;27858;51.414;0.018;2022-07-23T00:27:59;18.30;1.00
42187;DHT22;27858;51.414;0.018;2022-07-23T00:30:26;18.30;1.00
42187;DHT22;27858;51.414;0.018;2022-07-23T00:32:58;18.30;1.00
42187;DHT22;27858;51.414;0.018;2022-07-23T00:35:28;18.30;1.00
42187;DHT22;27858;51.414;0.018;2022-07-23T00:37:56;18.30;1.00
42187;DHT22;27858;51.414;0.018;2022-07-23T00:40:23;18.20;1.00
42187;DHT22;27858;51.414;0.018;2022-07-23T00:42:50;18.20;1.00
42187;DHT22;27858;51.414;0.018;2022-07-23T00:45:17;18.20;1.00
42187;DHT22;27858;51.414;0.018;2022-07-23T00:47:44;18.20;1.00
42187;DHT22;27858;51.414;0.018;2022-07-23T00:50:12;18.30;1.00
42187;DHT22;27858;51.414;0.018;2022-07-23T00:52:39;18.30;1.00
42187;DHT22;27858;51.414;0.018;2022-07-23T00:55:08;18.30;1.00
42187;DHT22;27858;51.414;0.018;2022-07-23T00:57:36;18.30;1.00
42187;DHT22;27858;51.414;0.018;2022-07-23T01:00:05;18.30;1.00
42187;DHT22;27858;51.414;0.018;2022-07-23T01:02:33;18.30;1.00
42187;DHT22;27858;51.414;0.018;2022-07-23T01:05:00;18.20;1.00
42187;DHT22;27858;51.414;0.018;2022-07-23T01:07:28;18.20;1.00
42187;DHT22;27858;51.414;0.018;2022-07-23T01:09:55;18.20;1.00
42187;DHT22;27858;51.414;0.018;2022-07-23T01:12:22;18.20;1.00
42187;DHT22;27858;51.414;0.018;2022-07-23T01:14:59;18.20;1.00
42187;DHT22;27858;51.414;0.018;2022-07-23T01:17:27;18.10;1.00
42187;DHT22;27858;51.414;0.018;2022-07-23T01:19:54;18.10;1.00
42187;DHT22;27858;51.414;0.018;2022-07-23T01:22:21;18.00;1.00
42187;DHT22;27858;51.414;0.018;2022-07-23T01:24:48;18.00;1.00
42187;DHT22;27858;51.414;0.018;2022-07-23T01:27:15;17.90;1.00
42187;DHT22;27858;51.414;0.018;2022-07-23T01:29:44;17.90;1.00
42187;DHT22;27858;51.414;0.018;2022-07-23T01:32:11;17.80;1.00
42187;DHT22;27858;51.414;0.018;2022-07-23T01:34:38;17.80;1.00
42187;DHT22;27858;51.414;0.018;2022-07-23T01:37:06;17.80;1.00
42187;DHT22;27858;51.414;0.018;2022-07-23T01:39:33;17.70;1.00
42187;DHT22;27858;51.414;0.018;2022-07-23T01:42:00;17.80;1.00
42187;DHT22;27858;51.414;0.018;2022-07-23T01:44:27;17.70;1.00
42187;DHT22;27858;51.414;0.018;2022-07-23T01:46:55;17.70;1.00
42187;DHT22;27858;51.414;0.018;2022-07-23T01:49:22;17.80;1.00
42187;DHT22;27858;51.414;0.018;2022-07-23T01:51:49;17.70;1.00
42187;DHT22;27858;51.414;0.018;2022-07-23T01:54:33;17.80;1.00
42187;DHT22;27858;51.414;0.018;2022-07-23T01:57:00;17.80;1.00
42187;DHT22;27858;51.414;0.018;2022-07-23T01:59:27;17.80;1.00
42187;DHT22;27858;51.414;0.018;2022-07-23T02:01:54;17.80;1.00
42187;DHT22;27858;51.414;0.018;2022-07-23T02:04:22;17.80;1.00
42187;DHT22;27858;51.414;0.018;2022-07-23T02:06:50;17.80;1.00
42187;DHT22;27858;51.414;0.018;2022-07-23T02:09:17;17.80;1.00
42187;DHT22;27858;51.414;0.018;2022-07-23T02:11:44;17.80;1.00
42187;DHT22;27858;51.414;0.018;2022-07-23T02:14:11;17.80;1.00
42187;DHT22;27858;51.414;0.018;2022-07-23T02:16:38;17.80;1.00
42187;DHT22;27858;51.414;0.018;2022-07-23T02:19:05;17.80;1.00
42187;DHT22;27858;51.414;0.018;2022-07-23T02:21:32;17.80;1.00
42187;DHT22;27858;51.414;0.018;2022-07-23T02:23:59;17.80;1.00
42187;DHT22;27858;51.414;0.018;2022-07-23T02:26:26;17.80;1.00
42187;DHT22;27858;51.414;0.018;2022-07-23T02:28:52;17.90;1.00
42187;DHT22;27858;51.414;0.018;2022-07-23T02:31:20;17.90;1.00
42187;DHT22;27858;51.414;0.018;2022-07-23T02:33:47;17.80;1.00
42187;DHT22;27858;51.414;0.018;2022-07-23T02:36:14;17.80;1.00
42187;DHT22;27858;51.414;0.018;2022-07-23T02:38:40;17.70;1.00
42187;DHT22;27858;51.414;0.018;2022-07-23T02:41:07;17.70;1.00
42187;DHT22;27858;51.414;0.018;2022-07-23T02:43:34;17.70;1.00
42187;DHT22;27858;51.414;0.018;2022-07-23T02:46:01;17.70;1.00
42187;DHT22;27858;51.414;0.018;2022-07-23T02:48:28;17.70;1.00
42187;DHT22;27858;51.414;0.018;2022-07-23T02:50:54;17.70;1.00
42187;DHT22;27858;51.414;0.018;2022-07-23T02:53:23;17.60;1.00
42187;DHT22;27858;51.414;0.018;2022-07-23T02:55:50;17.60;1.00
42187;DHT22;27858;51.414;0.018;2022-07-23T02:58:17;17.70;1.00
42187;DHT22;27858;51.414;0.018;2022-07-23T03:00:44;17.70;1.00
42187;DHT22;27858;51.414;0.018;2022-07-23T03:03:11;17.70;1.00
42187;DHT22;27858;51.414;0.018;2022-07-23T03:05:38;17.70;1.00
42187;DHT22;27858;51.414;0.018;2022-07-23T03:08:05;17.70;1.00
42187;DHT22;27858;51.414;0.018;2022-07-23T03:10:32;17.70;1.00
42187;DHT22;27858;51.414;0.018;2022-07-23T03:12:58;17.70;1.00
42187;DHT22;27858;51.414;0.018;2022-07-23T03:15:25;17.70;1.00
42187;DHT22;27858;51.414;0.018;2022-07-23T03:17:52;17.70;1.00
42187;DHT22;27858;51.414;0.018;2022-07-23T03:20:19;17.60;1.00
42187;DHT22;27858;51.414;0.018;2022-07-23T03:22:46;17.60;1.00
42187;DHT22;27858;51.414;0.018;2022-07-23T03:25:12;17.60;1.00
42187;DHT22;27858;51.414;0.018;2022-07-23T03:27:39;17.60;1.00
42187;DHT22;27858;51.414;0.018;2022-07-23T03:30:07;17.50;1.00
42187;DHT22;27858;51.414;0.018;2022-07-23T03:32:34;17.50;1.00
42187;DHT22;27858;51.414;0.018;2022-07-23T03:35:00;17.50;1.00
42187;DHT22;27858;51.414;0.018;2022-07-23T03:37:28;17.50;1.00
42187;DHT22;27858;51.414;0.018;2022-07-23T03:39:55;17.50;1.00
42187;DHT22;27858;51.414;0.018;2022-07-23T03:42:22;17.50;1.00
42187;DHT22;27858;51.414;0.018;2022-07-23T03:44:49;17.40;1.00
42187;DHT22;27858;51.414;0.018;2022-07-23T03:47:15;17.40;2.20
42187;DHT22;27858;51.414;0.018;2022-07-23T03:49:43;17.40;1.00
42187;DHT22;27858;51.414;0.018;2022-07-23T03:52:10;17.40;1.00
42187;DHT22;27858;51.414;0.018;2022-07-23T03:54:37;17.40;1.00
42187;DHT22;27858;51.414;0.018;2022-07-23T03:57:04;17.40;1.00
42187;DHT22;27858;51.414;0.018;2022-07-23T03:59:32;17.40;1.60
42187;DHT22;27858;51.414;0.018;2022-07-23T04:01:59;17.40;1.00
42187;DHT22;27858;51.414;0.018;2022-07-23T04:04:25;17.40;1.60
42187;DHT22;27858;51.414;0.018;2022-07-23T04:06:52;17.40;2.50
42187;DHT22;27858;51.414;0.018;2022-07-23T04:09:19;17.30;3.60
42187;DHT22;27858;51.414;0.018;2022-07-23T04:11:46;17.30;3.10
42187;DHT22;27858;51.414;0.018;2022-07-23T04:14:13;17.30;5.60
42187;DHT22;27858;51.414;0.018;2022-07-23T04:16:40;17.30;5.50
42187;DHT22;27858;51.414;0.018;2022-07-23T04:19:06;17.30;5.70
42187;DHT22;27858;51.414;0.018;2022-07-23T04:21:33;17.30;7.50
42187;DHT22;27858;51.414;0.018;2022-07-23T04:24:00;17.30;12.10
42187;DHT22;27858;51.414;0.018;2022-07-23T04:26:27;17.40;9.10
42187;DHT22;27858;51.414;0.018;2022-07-23T04:28:53;17.40;6.90
42187;DHT22;27858;51.414;0.018;2022-07-23T04:31:20;17.40;9.30
42187;DHT22;27858;51.414;0.018;2022-07-23T04:33:47;17.40;7.50
42187;DHT22;27858;51.414;0.018;2022-07-23T04:36:14;17.50;5.00
42187;DHT22;27858;51.414;0.018;2022-07-23T04:38:41;17.40;7.30
42187;DHT22;27858;51.414;0.018;2022-07-23T04:41:08;17.50;12.30
42187;DHT22;27858;51.414;0.018;2022-07-23T04:43:34;17.50;9.90
42187;DHT22;27858;51.414;0.018;2022-07-23T04:46:01;17.50;14.40
42187;DHT22;27858;51.414;0.018;2022-07-23T04:48:28;17.50;6.30
42187;DHT22;27858;51.414;0.018;2022-07-23T04:50:55;17.50;9.00
42187;DHT22;27858;51.414;0.018;2022-07-23T04:53:22;17.50;8.50
42187;DHT22;27858;51.414;0.018;2022-07-23T04:55:49;17.40;1.00
42187;DHT22;27858;51.414;0.018;2022-07-23T04:58:16;17.40;3.60
42187;DHT22;27858;51.414;0.018;2022-07-23T05:00:42;17.40;11.50
42187;DHT22;27858;51.414;0.018;2022-07-23T05:03:09;17.40;16.60
42187;DHT22;27858;51.414;0.018;2022-07-23T05:05:36;17.40;14.50
42187;DHT22;27858;51.414;0.018;2022-07-23T05:08:03;17.40;12.90
42187;DHT22;27858;51.414;0.018;2022-07-23T05:10:30;17.40;17.80
42187;DHT22;27858;51.414;0.018;2022-07-23T05:12:57;17.40;24.40
42187;DHT22;27858;51.414;0.018;2022-07-23T05:15:24;17.40;15.90
42187;DHT22;27858;51.414;0.018;2022-07-23T05:17:51;17.40;20.70
42187;DHT22;27858;51.414;0.018;2022-07-23T05:20:17;17.40;20.50
42187;DHT22;27858;51.414;0.018;2022-07-23T05:22:44;17.40;22.30
42187;DHT22;27858;51.414;0.018;2022-07-23T05:25:11;17.30;25.40
42187;DHT22;27858;51.414;0.018;2022-07-23T05:27:38;17.30;25.90
42187;DHT22;27858;51.414;0.018;2022-07-23T05:30:05;17.40;25.10
42187;DHT22;27858;51.414;0.018;2022-07-23T05:32:32;17.30;23.50
42187;DHT22;27858;51.414;0.018;2022-07-23T05:34:59;17.30;28.10
42187;DHT22;27858;51.414;0.018;2022-07-23T05:37:26;17.30;37.20
42187;DHT22;27858;51.414;0.018;2022-07-23T05:39:52;17.30;50.60
42187;DHT22;27858;51.414;0.018;2022-07-23T05:42:19;17.30;43.80
42187;DHT22;27858;51.414;0.018;2022-07-23T05:44:46;17.40;43.30
42187;DHT22;27858;51.414;0.018;2022-07-23T05:47:13;17.50;33.50
42187;DHT22;27858;51.414;0.018;2022-07-23T05:49:40;17.50;30.80
42187;DHT22;27858;51.414;0.018;2022-07-23T05:52:07;17.50;23.80
42187;DHT22;27858;51.414;0.018;2022-07-23T05:54:34;17.60;13.30
42187;DHT22;27858;51.414;0.018;2022-07-23T05:57:03;17.60;13.10
42187;DHT22;27858;51.414;0.018;2022-07-23T05:59:30;17.70;9.70
42187;DHT22;27858;51.414;0.018;2022-07-23T06:01:57;17.60;2.90
42187;DHT22;27858;51.414;0.018;2022-07-23T06:04:24;17.60;8.50
42187;DHT22;27858;51.414;0.018;2022-07-23T06:06:51;17.60;14.80
42187;DHT22;27858;51.414;0.018;2022-07-23T06:09:18;17.70;15.00
42187;DHT22;27858;51.414;0.018;2022-07-23T06:11:45;17.70;2.90
42187;DHT22;27858;51.414;0.018;2022-07-23T06:14:12;17.80;4.10
42187;DHT22;27858;51.414;0.018;2022-07-23T06:16:38;17.90;1.00
42187;DHT22;27858;51.414;0.018;2022-07-23T06:19:05;17.90;1.00
42187;DHT22;27858;51.414;0.018;2022-07-23T06:21:32;17.90;1.00
42187;DHT22;27858;51.414;0.018;2022-07-23T06:24:12;17.90;1.00
42187;DHT22;27858;51.414;0.018;2022-07-23T06:26:39;18.00;1.00
42187;DHT22;27858;51.414;0.018;2022-07-23T06:29:06;18.10;1.00
42187;DHT22;27858;51.414;0.018;2022-07-23T06:31:33;18.20;1.00
42187;DHT22;27858;51.414;0.018;2022-07-23T06:34:01;18.30;1.00
42187;DHT22;27858;51.414;0.018;2022-07-23T06:36:28;18.30;1.00
42187;DHT22;27858;51.414;0.018;2022-07-23T06:38:54;18.30;1.00
42187;DHT22;27858;51.414;0.018;2022-07-23T06:41:21;18.30;1.00
42187;DHT22;27858;51.414;0.018;2022-07-23T06:43:49;18.40;1.00
42187;DHT22;27858;51.414;0.018;2022-07-23T06:46:16;18.40;1.00
42187;DHT22;27858;51.414;0.018;2022-07-23T06:48:43;18.40;1.00
42187;DHT22;27858;51.414;0.018;2022-07-23T06:51:10;18.50;1.00
42187;DHT22;27858;51.414;0.018;2022-07-23T06:53:37;18.60;1.00
42187;DHT22;27858;51.414;0.018;2022-07-23T06:56:04;18.60;1.00
42187;DHT22;27858;51.414;0.018;2022-07-23T06:58:30;18.60;1.00
42187;DHT22;27858;51.414;0.018;2022-07-23T07:00:57;18.60;1.00
42187;DHT22;27858;51.414;0.018;2022-07-23T07:03:24;18.70;1.00
42187;DHT22;27858;51.414;0.018;2022-07-23T07:05:51;18.70;1.00
42187;DHT22;27858;51.414;0.018;2022-07-23T07:08:18;18.80;1.00
42187;DHT22;27858;51.414;0.018;2022-07-23T07:10:45;18.70;1.00
42187;DHT22;27858;51.414;0.018;2022-07-23T07:13:13;18.70;1.00
42187;DHT22;27858;51.414;0.018;2022-07-23T07:15:39;18.80;1.00
42187;DHT22;27858;51.414;0.018;2022-07-23T07:18:07;18.90;1.00
42187;DHT22;27858;51.414;0.018;2022-07-23T07:20:33;19.00;1.00
42187;DHT22;27858;51.414;0.018;2022-07-23T07:23:00;19.00;1.00
42187;DHT22;27858;51.414;0.018;2022-07-23T07:25:27;19.10;1.00
42187;DHT22;27858;51.414;0.018;2022-07-23T07:27:54;19.20;1.00
42187;DHT22;27858;51.414;0.018;2022-07-23T07:30:21;19.10;1.00
42187;DHT22;27858;51.414;0.018;2022-07-23T07:32:48;19.20;1.00
42187;DHT22;27858;51.414;0.018;2022-07-23T07:35:24;19.30;1.00
42187;DHT22;27858;51.414;0.018;2022-07-23T07:37:51;19.40;1.00
42187;DHT22;27858;51.414;0.018;2022-07-23T07:40:18;19.40;1.00
42187;DHT22;27858;51.414;0.018;2022-07-23T07:42:46;19.40;1.00
42187;DHT22;27858;51.414;0.018;2022-07-23T07:45:14;19.40;1.00
42187;DHT22;27858;51.414;0.018;2022-07-23T07:47:42;19.50;1.00
42187;DHT22;27858;51.414;0.018;2022-07-23T07:50:09;19.60;1.00
42187;DHT22;27858;51.414;0.018;2022-07-23T07:52:38;19.70;1.00
42187;DHT22;27858;51.414;0.018;2022-07-23T07:55:07;19.80;1.00
42187;DHT22;27858;51.414;0.018;2022-07-23T07:57:35;19.80;1.00
42187;DHT22;27858;51.414;0.018;2022-07-23T08:00:04;19.80;1.00
42187;DHT22;27858;51.414;0.018;2022-07-23T08:05:10;19.90;99.90
42187;DHT22;27858;51.414;0.018;2022-07-23T08:07:37;19.90;99.90
42187;DHT22;27858;51.414;0.018;2022-07-23T08:10:07;19.90;99.90
42187;DHT22;27858;51.414;0.018;2022-07-23T08:12:43;20.10;99.90
42187;DHT22;27858;51.414;0.018;2022-07-23T08:15:13;20.10;99.90
42187;DHT22;27858;51.414;0.018;2022-07-23T08:17:41;20.30;99.90
42187;DHT22;27858;51.414;0.018;2022-07-23T08:20:10;20.10;99.90
42187;DHT22;27858;51.414;0.018;2022-07-23T08:22:47;20.40;99.90
42187;DHT22;27858;51.414;0.018;2022-07-23T08:25:38;20.40;99.90
42187;DHT22;27858;51.414;0.018;2022-07-23T08:28:05;20.50;99.90
42187;DHT22;27858;51.414;0.018;2022-07-23T08:30:33;20.50;99.90
42187;DHT22;27858;51.414;0.018;2022-07-23T08:33:11;20.50;99.90
42187;DHT22;27858;51.414;0.018;2022-07-23T08:35:57;20.50;99.90
42187;DHT22;27858;51.414;0.018;2022-07-23T08:38:24;20.60;99.90
42187;DHT22;27858;51.414;0.018;2022-07-23T08:40:53;20.50;99.90
42187;DHT22;27858;51.414;0.018;2022-07-23T08:43:23;20.70;99.90
42187;DHT22;27858;51.414;0.018;2022-07-23T08:45:52;20.80;99.90
42187;DHT22;27858;51.414;0.018;2022-07-23T08:48:21;20.70;99.90
42187;DHT22;27858;51.414;0.018;2022-07-23T08:50:51;20.70;99.90
42187;DHT22;27858;51.414;0.018;2022-07-23T08:53:19;20.70;99.90
42187;DHT22;27858;51.414;0.018;2022-07-23T08:55:47;20.80;99.90
42187;DHT22;27858;51.414;0.018;2022-07-23T08:58:15;20.80;99.90
42187;DHT22;27858;51.414;0.018;2022-07-23T09:00:43;20.90;99.90
42187;DHT22;27858;51.414;0.018;2022-07-23T09:03:33;20.90;99.90
42187;DHT22;27858;51.414;0.018;2022-07-23T09:06:00;21.10;99.90
42187;DHT22;27858;51.414;0.018;2022-07-23T09:11:05;21.20;99.90
42187;DHT22;27858;51.414;0.018;2022-07-23T09:24:07;21.60;99.90
42187;DHT22;27858;51.414;0.018;2022-07-23T09:26:42;21.80;99.90
42187;DHT22;27858;51.414;0.018;2022-07-23T09:29:25;21.80;99.90
42187;DHT22;27858;51.414;0.018;2022-07-23T09:31:59;21.90;99.90
42187;DHT22;27858;51.414;0.018;2022-07-23T09:34:27;22.10;99.90
42187;DHT22;27858;51.414;0.018;2022-07-23T09:37:15;22.10;99.90
42187;DHT22;27858;51.414;0.018;2022-07-23T09:39:44;22.10;99.90
42187;DHT22;27858;51.414;0.018;2022-07-23T09:42:24;21.90;99.90
42187;DHT22;27858;51.414;0.018;2022-07-23T09:44:54;22.00;99.90
42187;DHT22;27858;51.414;0.018;2022-07-23T09:47:23;22.00;99.90
42187;DHT22;27858;51.414;0.018;2022-07-23T09:50:07;22.00;99.90
42187;DHT22;27858;51.414;0.018;2022-07-23T09:52:45;22.30;99.90
42187;DHT22;27858;51.414;0.018;2022-07-23T09:55:15;22.30;99.90
42187;DHT22;27858;51.414;0.018;2022-07-23T09:57:43;22.30;99.90
42187;DHT22;27858;51.414;0.018;2022-07-23T10:00:17;22.30;99.90
42187;DHT22;27858;51.414;0.018;2022-07-23T10:02:45;22.20;99.90
42187;DHT22;27858;51.414;0.018;2022-07-23T10:05:15;22.10;99.90
42187;DHT22;27858;51.414;0.018;2022-07-23T10:07:42;22.30;99.90
42187;DHT22;27858;51.414;0.018;2022-07-23T10:10:17;22.50;99.90
42187;DHT22;27858;51.414;0.018;2022-07-23T10:12:45;22.60;99.90
42187;DHT22;27858;51.414;0.018;2022-07-23T10:15:18;22.60;99.90
42187;DHT22;27858;51.414;0.018;2022-07-23T10:17:45;22.70;99.90
42187;DHT22;27858;51.414;0.018;2022-07-23T10:20:14;22.70;99.90
42187;DHT22;27858;51.414;0.018;2022-07-23T10:22:47;22.90;99.90
42187;DHT22;27858;51.414;0.018;2022-07-23T10:25:36;22.90;99.90
42187;DHT22;27858;51.414;0.018;2022-07-23T10:34:19;23.00;99.90
42187;DHT22;27858;51.414;0.018;2022-07-23T10:36:49;23.10;99.90
42187;DHT22;27858;51.414;0.018;2022-07-23T10:39:30;23.10;99.90
42187;DHT22;27858;51.414;0.018;2022-07-23T10:42:11;23.10;99.90
42187;DHT22;27858;51.414;0.018;2022-07-23T10:44:48;23.10;99.90
42187;DHT22;27858;51.414;0.018;2022-07-23T10:47:27;23.20;99.90
42187;DHT22;27858;51.414;0.018;2022-07-23T10:50:25;23.10;99.90
42187;DHT22;27858;51.414;0.018;2022-07-23T10:58:04;23.60;99.90
42187;DHT22;27858;51.414;0.018;2022-07-23T11:00:33;23.70;99.90
42187;DHT22;27858;51.414;0.018;2022-07-23T11:03:02;23.60;99.90
42187;DHT22;27858;51.414;0.018;2022-07-23T11:10:52;23.60;99.90
42187;DHT22;27858;51.414;0.018;2022-07-23T11:13:25;23.90;99.90
42187;DHT22;27858;51.414;0.018;2022-07-23T11:24:09;23.70;99.90
42187;DHT22;27858;51.414;0.018;2022-07-23T11:27:01;23.90;99.90
42187;DHT22;27858;51.414;0.018;2022-07-23T11:32:07;24.10;99.90
42187;DHT22;27858;51.414;0.018;2022-07-23T11:34:40;24.20;99.90
42187;DHT22;27858;51.414;0.018;2022-07-23T11:37:12;24.00;99.90
42187;DHT22;27858;51.414;0.018;2022-07-23T11:39:39;24.10;99.90
42187;DHT22;27858;51.414;0.018;2022-07-23T11:42:07;24.00;99.90
42187;DHT22;27858;51.414;0.018;2022-07-23T11:44:37;24.40;99.90
42187;DHT22;27858;51.414;0.018;2022-07-23T11:47:09;24.10;99.90
42187;DHT22;27858;51.414;0.018;2022-07-23T11:49:36;24.40;99.90
42187;DHT22;27858;51.414;0.018;2022-07-23T11:54:32;24.30;99.90
42187;DHT22;27858;51.414;0.018;2022-07-23T11:57:05;24.60;99.90
42187;DHT22;27858;51.414;0.018;2022-07-23T11:59:33;24.90;99.90
42187;DHT22;27858;51.414;0.018;2022-07-23T12:02:05;24.90;99.90
42187;DHT22;27858;51.414;0.018;2022-07-23T12:04:39;25.00;99.90
42187;DHT22;27858;51.414;0.018;2022-07-23T12:07:32;24.80;99.90
42187;DHT22;27858;51.414;0.018;2022-07-23T12:10:03;24.80;99.90
42187;DHT22;27858;51.414;0.018;2022-07-23T12:12:42;24.70;99.90
42187;DHT22;27858;51.414;0.018;2022-07-23T12:15:11;24.80;99.90
42187;DHT22;27858;51.414;0.018;2022-07-23T12:17:40;24.70;99.90
42187;DHT22;27858;51.414;0.018;2022-07-23T12:20:09;24.80;99.90
42187;DHT22;27858;51.414;0.018;2022-07-23T12:22:43;24.70;99.90
42187;DHT22;27858;51.414;0.018;2022-07-23T12:25:14;24.80;99.90
42187;DHT22;27858;51.414;0.018;2022-07-23T12:27:43;24.70;99.90
42187;DHT22;27858;51.414;0.018;2022-07-23T12:32:44;25.10;99.90
42187;DHT22;27858;51.414;0.018;2022-07-23T12:35:12;25.30;99.90
42187;DHT22;27858;51.414;0.018;2022-07-23T12:37:42;25.40;99.90
42187;DHT22;27858;51.414;0.018;2022-07-23T12:40:48;25.20;99.90
42187;DHT22;27858;51.414;0.018;2022-07-23T12:43:33;25.40;99.90
42187;DHT22;27858;51.414;0.018;2022-07-23T12:48:32;25.80;99.90
42187;DHT22;27858;51.414;0.018;2022-07-23T12:51:24;26.00;99.90
42187;DHT22;27858;51.414;0.018;2022-07-23T12:53:57;26.20;99.90
42187;DHT22;27858;51.414;0.018;2022-07-23T12:56:33;26.30;99.90
42187;DHT22;27858;51.414;0.018;2022-07-23T13:01:42;26.50;99.90
42187;DHT22;27858;51.414;0.018;2022-07-23T13:04:19;26.40;99.90
42187;DHT22;27858;51.414;0.018;2022-07-23T13:06:55;26.00;99.90
42187;DHT22;27858;51.414;0.018;2022-07-23T13:09:27;26.20;99.90
42187;DHT22;27858;51.414;0.018;2022-07-23T13:11:59;26.40;99.90
42187;DHT22;27858;51.414;0.018;2022-07-23T13:14:28;26.40;99.90
42187;DHT22;27858;51.414;0.018;2022-07-23T13:16:55;26.80;99.90
42187;DHT22;27858;51.414;0.018;2022-07-23T13:19:25;26.60;99.90
42187;DHT22;27858;51.414;0.018;2022-07-23T13:21:53;26.60;99.90
42187;DHT22;27858;51.414;0.018;2022-07-23T13:24:21;26.60;99.90
42187;DHT22;27858;51.414;0.018;2022-07-23T13:26:48;26.90;99.90
42187;DHT22;27858;51.414;0.018;2022-07-23T13:29:17;27.50;99.90
42187;DHT22;27858;51.414;0.018;2022-07-23T13:31:46;27.50;99.90
42187;DHT22;27858;51.414;0.018;2022-07-23T13:34:14;27.40;99.90
42187;DHT22;27858;51.414;0.018;2022-07-23T13:36:41;27.50;99.90
42187;DHT22;27858;51.414;0.018;2022-07-23T13:39:10;27.70;99.90
42187;DHT22;27858;51.414;0.018;2022-07-23T13:41:38;27.70;99.90
42187;DHT22;27858;51.414;0.018;2022-07-23T13:44:05;27.50;99.90
42187;DHT22;27858;51.414;0.018;2022-07-23T13:46:33;27.30;99.90
42187;DHT22;27858;51.414;0.018;2022-07-23T13:49:01;27.80;99.90
42187;DHT22;27858;51.414;0.018;2022-07-23T13:51:28;27.80;99.90
42187;DHT22;27858;51.414;0.018;2022-07-23T13:53:55;28.00;99.90
42187;DHT22;27858;51.414;0.018;2022-07-23T13:56:25;28.40;99.90
42187;DHT22;27858;51.414;0.018;2022-07-23T13:58:52;28.60;99.90
42187;DHT22;27858;51.414;0.018;2022-07-23T14:01:19;28.70;99.90
42187;DHT22;27858;51.414;0.018;2022-07-23T14:03:46;29.00;99.90
42187;DHT22;27858;51.414;0.018;2022-07-23T14:06:13;29.20;99.90
42187;DHT22;27858;51.414;0.018;2022-07-23T14:09:00;29.00;99.90
42187;DHT22;27858;51.414;0.018;2022-07-23T14:11:28;28.50;99.90
42187;DHT22;27858;51.414;0.018;2022-07-23T14:13:57;28.30;99.90
42187;DHT22;27858;51.414;0.018;2022-07-23T14:16:25;28.60;99.90
42187;DHT22;27858;51.414;0.018;2022-07-23T14:18:52;28.50;99.90
42187;DHT22;27858;51.414;0.018;2022-07-23T14:21:18;28.70;99.90
42187;DHT22;27858;51.414;0.018;2022-07-23T14:23:45;29.00;99.90
42187;DHT22;27858;51.414;0.018;2022-07-23T14:26:13;28.60;99.90
42187;DHT22;27858;51.414;0.018;2022-07-23T14:28:41;28.50;99.90
42187;DHT22;27858;51.414;0.018;2022-07-23T14:31:07;28.30;99.90
42187;DHT22;27858;51.414;0.018;2022-07-23T14:33:46;28.30;99.90
42187;DHT22;27858;51.414;0.018;2022-07-23T14:36:13;28.30;99.90
42187;DHT22;27858;51.414;0.018;2022-07-23T14:38:41;28.60;99.90
42187;DHT22;27858;51.414;0.018;2022-07-23T14:41:08;28.80;99.90
42187;DHT22;27858;51.414;0.018;2022-07-23T14:43:36;28.80;99.90
42187;DHT22;27858;51.414;0.018;2022-07-23T14:46:05;28.30;99.90
42187;DHT22;27858;51.414;0.018;2022-07-23T14:48:32;28.10;99.90
42187;DHT22;27858;51.414;0.018;2022-07-23T14:50:59;28.10;99.90
42187;DHT22;27858;51.414;0.018;2022-07-23T14:53:26;28.00;99.90
42187;DHT22;27858;51.414;0.018;2022-07-23T14:55:52;28.30;99.90
42187;DHT22;27858;51.414;0.018;2022-07-23T14:58:21;27.90;99.90
42187;DHT22;27858;51.414;0.018;2022-07-23T15:00:48;27.40;99.90
42187;DHT22;27858;51.414;0.018;2022-07-23T15:03:15;27.00;99.90
42187;DHT22;27858;51.414;0.018;2022-07-23T15:05:42;26.90;99.90
42187;DHT22;27858;51.414;0.018;2022-07-23T15:08:09;26.80;99.90
42187;DHT22;27858;51.414;0.018;2022-07-23T15:10:36;26.60;99.90
42187;DHT22;27858;51.414;0.018;2022-07-23T15:13:03;26.50;99.90
42187;DHT22;27858;51.414;0.018;2022-07-23T15:15:30;26.40;99.90
42187;DHT22;27858;51.414;0.018;2022-07-23T15:17:57;26.40;99.90
42187;DHT22;27858;51.414;0.018;2022-07-23T15:20:24;26.30;99.90
42187;DHT22;27858;51.414;0.018;2022-07-23T15:23:05;26.10;99.90
42187;DHT22;27858;51.414;0.018;2022-07-23T15:25:53;26.30;99.90
42187;DHT22;27858;51.414;0.018;2022-07-23T15:28:20;26.30;99.90
42187;DHT22;27858;51.414;0.018;2022-07-23T15:30:49;26.30;99.90
42187;DHT22;27858;51.414;0.018;2022-07-23T15:33:16;26.20;99.90
42187;DHT22;27858;51.414;0.018;2022-07-23T15:35:47;26.50;99.90
42187;DHT22;27858;51.414;0.018;2022-07-23T15:38:14;26.50;99.90
42187;DHT22;27858;51.414;0.018;2022-07-23T15:40:51;26.70;99.90
42187;DHT22;27858;51.414;0.018;2022-07-23T15:43:18;27.00;99.90
42187;DHT22;27858;51.414;0.018;2022-07-23T15:45:45;26.80;99.90
42187;DHT22;27858;51.414;0.018;2022-07-23T15:48:13;26.60;99.90
42187;DHT22;27858;51.414;0.018;2022-07-23T15:50:40;27.20;99.90
42187;DHT22;27858;51.414;0.018;2022-07-23T15:53:12;27.40;99.90
42187;DHT22;27858;51.414;0.018;2022-07-23T15:55:41;27.50;99.90
42187;DHT22;27858;51.414;0.018;2022-07-23T15:58:12;28.00;99.90
42187;DHT22;27858;51.414;0.018;2022-07-23T16:00:40;28.50;99.90
42187;DHT22;27858;51.414;0.018;2022-07-23T16:03:11;29.40;99.90
42187;DHT22;27858;51.414;0.018;2022-07-23T16:05:39;28.50;99.90
42187;DHT22;27858;51.414;0.018;2022-07-23T16:08:08;28.30;99.90
42187;DHT22;27858;51.414;0.018;2022-07-23T16:10:35;28.00;99.90
42187;DHT22;27858;51.414;0.018;2022-07-23T16:13:03;28.00;99.90
42187;DHT22;27858;51.414;0.018;2022-07-23T16:15:30;27.80;99.90
42187;DHT22;27858;51.414;0.018;2022-07-23T16:17:57;27.60;99.90
42187;DHT22;27858;51.414;0.018;2022-07-23T16:20:24;27.50;99.90
42187;DHT22;27858;51.414;0.018;2022-07-23T16:22:51;27.60;99.90
42187;DHT22;27858;51.414;0.018;2022-07-23T16:25:18;27.10;99.90
42187;DHT22;27858;51.414;0.018;2022-07-23T16:27:45;27.50;99.90
42187;DHT22;27858;51.414;0.018;2022-07-23T16:30:13;27.80;99.90
42187;DHT22;27858;51.414;0.018;2022-07-23T16:32:41;28.00;99.90
42187;DHT22;27858;51.414;0.018;2022-07-23T16:35:09;28.50;99.90
42187;DHT22;27858;51.414;0.018;2022-07-23T16:37:41;28.80;99.90
42187;DHT22;27858;51.414;0.018;2022-07-23T16:40:09;29.00;99.90
42187;DHT22;27858;51.414;0.018;2022-07-23T16:42:37;28.70;99.90